sensor_id;sensor_type;location;lat;lon;timestamp;P1;durP1;ratioP1;P2;durP2;ratioP2
8474;SDS011;4274;52.012;8.448;2022-10-16T00:01:07;50.77;;;7.77;;
8474;SDS011;4274;52.012;8.448;2022-10-16T00:03:36;48.13;;;7.37;;
8474;SDS011;4274;52.012;8.448;2022-10-16T00:06:03;50.90;;;8.30;;
8474;SDS011;4274;52.012;8.448;2022-10-16T00:08:29;50.70;;;7.50;;
8474;SDS011;4274;52.012;8.448;2022-10-16T00:11:02;51.53;;;8.10;;
8474;SDS011;4274;52.012;8.448;2022-10-16T00:13:31;50.00;;;7.50;;
8474;SDS011;4274;52.012;8.448;2022-10-16T00:15:57;50.33;;;7.00;;
8474;SDS011;4274;52.012;8.448;2022-10-16T00:18:24;50.17;;;7.87;;
8474;SDS011;4274;52.012;8.448;2022-10-16T00:20:51;50.07;;;7.73;;
8474;SDS011;4274;52.012;8.448;2022-10-16T00:23:16;50.23;;;7.60;;
8474;SDS011;4274;52.012;8.448;2022-10-16T00:25:42;51.17;;;7.50;;
8474;SDS011;4274;52.012;8.448;2022-10-16T00:28:08;53.83;;;8.80;;
8474;SDS011;4274;52.012;8.448;2022-10-16T00:30:33;54.40;;;7.50;;
8474;SDS011;4274;52.012;8.448;2022-10-16T00:33:02;50.10;;;8.50;;
8474;SDS011;4274;52.012;8.448;2022-10-16T00:35:28;51.00;;;7.40;;
8474;SDS011;4274;52.012;8.448;2022-10-16T00:37:54;58.10;;;9.00;;
8474;SDS011;4274;52.012;8.448;2022-10-16T00:40:19;50.30;;;7.60;;
8474;SDS011;4274;52.012;8.448;2022-10-16T00:42:45;55.17;;;8.70;;
8474;SDS011;4274;52.012;8.448;2022-10-16T00:45:11;48.77;;;7.93;;
8474;SDS011;4274;52.012;8.448;2022-10-16T00:47:37;52.80;;;8.10;;
8474;SDS011;4274;52.012;8.448;2022-10-16T00:50:21;50.63;;;7.10;;
8474;SDS011;4274;52.012;8.448;2022-10-16T00:52:48;48.90;;;7.30;;
8474;SDS011;4274;52.012;8.448;2022-10-16T00:55:16;58.07;;;7.90;;
8474;SDS011;4274;52.012;8.448;2022-10-16T00:57:42;55.70;;;8.27;;
8474;SDS011;4274;52.012;8.448;2022-10-16T01:00:09;53.30;;;8.20;;
8474;SDS011;4274;52.012;8.448;2022-10-16T01:02:38;48.30;;;7.73;;
8474;SDS011;4274;52.012;8.448;2022-10-16T01:05:03;54.00;;;8.90;;
8474;SDS011;4274;52.012;8.448;2022-10-16T01:13:06;53.33;;;9.43;;
8474;SDS011;4274;52.012;8.448;2022-10-16T01:15:41;49.80;;;8.10;;
8474;SDS011;4274;52.012;8.448;2022-10-16T01:18:28;52.63;;;9.63;;
8474;SDS011;4274;52.012;8.448;2022-10-16T01:21:28;54.13;;;9.20;;
8474;SDS011;4274;52.012;8.448;2022-10-16T01:26:38;52.17;;;8.80;;
8474;SDS011;4274;52.012;8.448;2022-10-16T01:29:09;52.60;;;9.23;;
8474;SDS011;4274;52.012;8.448;2022-10-16T01:31:54;52.37;;;9.03;;
8474;SDS011;4274;52.012;8.448;2022-10-16T01:34:33;53.37;;;10.60;;
8474;SDS011;4274;52.012;8.448;2022-10-16T01:37:13;54.20;;;11.30;;
8474;SDS011;4274;52.012;8.448;2022-10-16T01:39:46;54.73;;;9.40;;
8474;SDS011;4274;52.012;8.448;2022-10-16T01:42:20;54.70;;;10.40;;
8474;SDS011;4274;52.012;8.448;2022-10-16T01:44:49;56.80;;;9.83;;
8474;SDS011;4274;52.012;8.448;2022-10-16T01:47:17;61.20;;;10.93;;
8474;SDS011;4274;52.012;8.448;2022-10-16T01:49:45;56.00;;;9.70;;
8474;SDS011;4274;52.012;8.448;2022-10-16T01:52:13;59.97;;;10.67;;
8474;SDS011;4274;52.012;8.448;2022-10-16T01:54:42;53.13;;;9.53;;
8474;SDS011;4274;52.012;8.448;2022-10-16T01:57:11;53.00;;;10.00;;
8474;SDS011;4274;52.012;8.448;2022-10-16T01:59:39;55.53;;;10.73;;
8474;SDS011;4274;52.012;8.448;2022-10-16T02:02:09;55.73;;;11.00;;
8474;SDS011;4274;52.012;8.448;2022-10-16T02:04:38;62.53;;;10.40;;
8474;SDS011;4274;52.012;8.448;2022-10-16T02:07:07;58.20;;;10.80;;
8474;SDS011;4274;52.012;8.448;2022-10-16T02:09:34;59.43;;;11.43;;
8474;SDS011;4274;52.012;8.448;2022-10-16T02:12:01;57.90;;;12.20;;
8474;SDS011;4274;52.012;8.448;2022-10-16T02:14:33;60.80;;;10.77;;
8474;SDS011;4274;52.012;8.448;2022-10-16T02:17:09;54.20;;;10.47;;
8474;SDS011;4274;52.012;8.448;2022-10-16T02:19:39;58.67;;;10.70;;
8474;SDS011;4274;52.012;8.448;2022-10-16T02:22:06;55.40;;;11.07;;
8474;SDS011;4274;52.012;8.448;2022-10-16T02:24:46;55.40;;;10.23;;
8474;SDS011;4274;52.012;8.448;2022-10-16T02:27:26;61.13;;;10.27;;
8474;SDS011;4274;52.012;8.448;2022-10-16T02:30:00;53.03;;;9.80;;
8474;SDS011;4274;52.012;8.448;2022-10-16T02:32:37;56.80;;;10.13;;
8474;SDS011;4274;52.012;8.448;2022-10-16T02:35:06;56.80;;;10.17;;
8474;SDS011;4274;52.012;8.448;2022-10-16T02:37:33;55.63;;;10.30;;
8474;SDS011;4274;52.012;8.448;2022-10-16T02:39:59;57.30;;;11.07;;
8474;SDS011;4274;52.012;8.448;2022-10-16T02:42:35;56.30;;;10.77;;
8474;SDS011;4274;52.012;8.448;2022-10-16T02:45:04;55.10;;;9.30;;
8474;SDS011;4274;52.012;8.448;2022-10-16T02:47:30;54.90;;;9.33;;
8474;SDS011;4274;52.012;8.448;2022-10-16T02:49:55;57.37;;;10.90;;
8474;SDS011;4274;52.012;8.448;2022-10-16T02:52:21;56.30;;;11.30;;
8474;SDS011;4274;52.012;8.448;2022-10-16T02:54:47;55.10;;;9.97;;
8474;SDS011;4274;52.012;8.448;2022-10-16T02:57:12;59.23;;;11.60;;
8474;SDS011;4274;52.012;8.448;2022-10-16T02:59:38;53.70;;;9.60;;
8474;SDS011;4274;52.012;8.448;2022-10-16T03:02:03;57.33;;;9.70;;
8474;SDS011;4274;52.012;8.448;2022-10-16T03:04:29;58.60;;;10.33;;
8474;SDS011;4274;52.012;8.448;2022-10-16T03:06:55;54.57;;;10.37;;
8474;SDS011;4274;52.012;8.448;2022-10-16T03:09:20;57.83;;;10.73;;
8474;SDS011;4274;52.012;8.448;2022-10-16T03:11:46;62.47;;;11.40;;
8474;SDS011;4274;52.012;8.448;2022-10-16T03:14:11;54.63;;;9.80;;
8474;SDS011;4274;52.012;8.448;2022-10-16T03:16:37;55.37;;;10.70;;
8474;SDS011;4274;52.012;8.448;2022-10-16T03:19:02;54.87;;;10.90;;
8474;SDS011;4274;52.012;8.448;2022-10-16T03:21:28;53.37;;;9.87;;
8474;SDS011;4274;52.012;8.448;2022-10-16T03:23:54;53.87;;;10.23;;
8474;SDS011;4274;52.012;8.448;2022-10-16T03:26:20;50.70;;;8.90;;
8474;SDS011;4274;52.012;8.448;2022-10-16T03:28:45;58.70;;;10.10;;
8474;SDS011;4274;52.012;8.448;2022-10-16T03:31:12;52.40;;;10.50;;
8474;SDS011;4274;52.012;8.448;2022-10-16T03:33:37;55.30;;;9.87;;
8474;SDS011;4274;52.012;8.448;2022-10-16T03:36:03;50.50;;;9.50;;
8474;SDS011;4274;52.012;8.448;2022-10-16T03:38:29;58.40;;;9.37;;
8474;SDS011;4274;52.012;8.448;2022-10-16T03:40:54;50.00;;;9.17;;
8474;SDS011;4274;52.012;8.448;2022-10-16T03:43:20;52.27;;;10.23;;
8474;SDS011;4274;52.012;8.448;2022-10-16T03:45:45;52.77;;;9.03;;
8474;SDS011;4274;52.012;8.448;2022-10-16T03:48:11;59.13;;;8.90;;
8474;SDS011;4274;52.012;8.448;2022-10-16T03:50:36;59.17;;;9.70;;
8474;SDS011;4274;52.012;8.448;2022-10-16T03:53:02;55.67;;;9.07;;
8474;SDS011;4274;52.012;8.448;2022-10-16T03:55:28;52.03;;;9.30;;
8474;SDS011;4274;52.012;8.448;2022-10-16T03:57:54;51.17;;;9.07;;
8474;SDS011;4274;52.012;8.448;2022-10-16T04:00:19;54.73;;;9.67;;
8474;SDS011;4274;52.012;8.448;2022-10-16T04:02:45;52.70;;;10.17;;
8474;SDS011;4274;52.012;8.448;2022-10-16T04:05:10;57.40;;;10.57;;
8474;SDS011;4274;52.012;8.448;2022-10-16T04:07:36;53.27;;;9.57;;
8474;SDS011;4274;52.012;8.448;2022-10-16T04:10:03;51.47;;;10.40;;
8474;SDS011;4274;52.012;8.448;2022-10-16T04:12:29;49.90;;;9.03;;
8474;SDS011;4274;52.012;8.448;2022-10-16T04:14:54;53.47;;;10.17;;
8474;SDS011;4274;52.012;8.448;2022-10-16T04:17:20;57.57;;;10.03;;
8474;SDS011;4274;52.012;8.448;2022-10-16T04:19:45;60.03;;;9.57;;
8474;SDS011;4274;52.012;8.448;2022-10-16T04:22:11;54.37;;;10.30;;
8474;SDS011;4274;52.012;8.448;2022-10-16T04:24:37;50.07;;;8.63;;
8474;SDS011;4274;52.012;8.448;2022-10-16T04:27:02;51.57;;;10.33;;
8474;SDS011;4274;52.012;8.448;2022-10-16T04:29:28;51.90;;;8.87;;
8474;SDS011;4274;52.012;8.448;2022-10-16T04:31:53;52.90;;;8.30;;
8474;SDS011;4274;52.012;8.448;2022-10-16T04:34:19;59.83;;;10.13;;
8474;SDS011;4274;52.012;8.448;2022-10-16T04:36:46;48.33;;;8.47;;
8474;SDS011;4274;52.012;8.448;2022-10-16T04:39:13;50.33;;;8.57;;
8474;SDS011;4274;52.012;8.448;2022-10-16T04:41:38;50.23;;;8.10;;
8474;SDS011;4274;52.012;8.448;2022-10-16T04:44:04;57.03;;;8.63;;
8474;SDS011;4274;52.012;8.448;2022-10-16T04:46:29;50.40;;;8.20;;
8474;SDS011;4274;52.012;8.448;2022-10-16T04:48:55;49.20;;;8.47;;
8474;SDS011;4274;52.012;8.448;2022-10-16T04:51:21;49.77;;;7.83;;
8474;SDS011;4274;52.012;8.448;2022-10-16T04:53:46;50.87;;;7.93;;
8474;SDS011;4274;52.012;8.448;2022-10-16T04:56:12;51.17;;;7.20;;
8474;SDS011;4274;52.012;8.448;2022-10-16T04:58:37;56.33;;;7.90;;
8474;SDS011;4274;52.012;8.448;2022-10-16T05:01:03;50.97;;;7.93;;
8474;SDS011;4274;52.012;8.448;2022-10-16T05:03:28;48.70;;;6.93;;
8474;SDS011;4274;52.012;8.448;2022-10-16T05:05:54;46.70;;;6.53;;
8474;SDS011;4274;52.012;8.448;2022-10-16T05:08:20;52.10;;;7.27;;
8474;SDS011;4274;52.012;8.448;2022-10-16T05:10:45;47.93;;;7.00;;
8474;SDS011;4274;52.012;8.448;2022-10-16T05:13:11;47.40;;;6.37;;
8474;SDS011;4274;52.012;8.448;2022-10-16T05:15:37;52.40;;;6.90;;
8474;SDS011;4274;52.012;8.448;2022-10-16T05:18:03;47.87;;;6.90;;
8474;SDS011;4274;52.012;8.448;2022-10-16T05:20:28;53.50;;;7.80;;
8474;SDS011;4274;52.012;8.448;2022-10-16T05:22:54;49.37;;;7.07;;
8474;SDS011;4274;52.012;8.448;2022-10-16T05:25:19;47.80;;;6.03;;
8474;SDS011;4274;52.012;8.448;2022-10-16T05:27:48;49.60;;;7.40;;
8474;SDS011;4274;52.012;8.448;2022-10-16T05:30:15;52.20;;;5.90;;
8474;SDS011;4274;52.012;8.448;2022-10-16T05:32:41;47.40;;;6.87;;
8474;SDS011;4274;52.012;8.448;2022-10-16T05:35:06;51.20;;;6.97;;
8474;SDS011;4274;52.012;8.448;2022-10-16T05:37:32;46.30;;;6.30;;
8474;SDS011;4274;52.012;8.448;2022-10-16T05:39:58;47.60;;;7.30;;
8474;SDS011;4274;52.012;8.448;2022-10-16T05:42:23;46.10;;;6.00;;
8474;SDS011;4274;52.012;8.448;2022-10-16T05:44:49;45.77;;;6.00;;
8474;SDS011;4274;52.012;8.448;2022-10-16T05:47:14;46.27;;;5.97;;
8474;SDS011;4274;52.012;8.448;2022-10-16T05:49:40;48.10;;;6.70;;
8474;SDS011;4274;52.012;8.448;2022-10-16T05:52:05;46.40;;;6.03;;
8474;SDS011;4274;52.012;8.448;2022-10-16T05:54:31;50.80;;;6.47;;
8474;SDS011;4274;52.012;8.448;2022-10-16T05:56:57;45.93;;;6.03;;
8474;SDS011;4274;52.012;8.448;2022-10-16T05:59:22;48.10;;;6.27;;
8474;SDS011;4274;52.012;8.448;2022-10-16T06:01:48;49.77;;;6.23;;
8474;SDS011;4274;52.012;8.448;2022-10-16T06:04:14;44.80;;;5.53;;
8474;SDS011;4274;52.012;8.448;2022-10-16T06:06:40;46.87;;;6.07;;
8474;SDS011;4274;52.012;8.448;2022-10-16T06:09:05;45.40;;;5.83;;
8474;SDS011;4274;52.012;8.448;2022-10-16T06:11:31;49.00;;;7.10;;
8474;SDS011;4274;52.012;8.448;2022-10-16T06:13:59;50.30;;;5.80;;
8474;SDS011;4274;52.012;8.448;2022-10-16T06:16:27;48.17;;;5.60;;
8474;SDS011;4274;52.012;8.448;2022-10-16T06:18:54;49.87;;;5.70;;
8474;SDS011;4274;52.012;8.448;2022-10-16T06:21:27;46.07;;;5.20;;
8474;SDS011;4274;52.012;8.448;2022-10-16T06:23:54;48.63;;;6.10;;
8474;SDS011;4274;52.012;8.448;2022-10-16T06:26:22;45.60;;;5.80;;
8474;SDS011;4274;52.012;8.448;2022-10-16T06:28:49;45.47;;;5.60;;
8474;SDS011;4274;52.012;8.448;2022-10-16T06:31:15;45.37;;;5.27;;
8474;SDS011;4274;52.012;8.448;2022-10-16T06:33:41;46.87;;;4.90;;
8474;SDS011;4274;52.012;8.448;2022-10-16T06:36:12;45.27;;;4.97;;
8474;SDS011;4274;52.012;8.448;2022-10-16T06:38:39;43.70;;;4.70;;
8474;SDS011;4274;52.012;8.448;2022-10-16T06:41:05;44.60;;;5.13;;
8474;SDS011;4274;52.012;8.448;2022-10-16T06:43:33;44.37;;;4.90;;
8474;SDS011;4274;52.012;8.448;2022-10-16T06:46:02;51.53;;;5.70;;
8474;SDS011;4274;52.012;8.448;2022-10-16T06:48:29;45.87;;;5.00;;
8474;SDS011;4274;52.012;8.448;2022-10-16T06:50:56;47.50;;;5.53;;
8474;SDS011;4274;52.012;8.448;2022-10-16T06:53:30;47.23;;;5.10;;
8474;SDS011;4274;52.012;8.448;2022-10-16T06:55:57;48.63;;;5.00;;
8474;SDS011;4274;52.012;8.448;2022-10-16T06:58:23;46.07;;;4.93;;
8474;SDS011;4274;52.012;8.448;2022-10-16T07:00:49;45.10;;;4.87;;
8474;SDS011;4274;52.012;8.448;2022-10-16T07:03:19;48.73;;;5.50;;
8474;SDS011;4274;52.012;8.448;2022-10-16T07:05:45;44.20;;;4.57;;
8474;SDS011;4274;52.012;8.448;2022-10-16T07:08:11;45.37;;;5.13;;
8474;SDS011;4274;52.012;8.448;2022-10-16T07:10:37;44.83;;;4.30;;
8474;SDS011;4274;52.012;8.448;2022-10-16T07:13:02;44.80;;;4.87;;
8474;SDS011;4274;52.012;8.448;2022-10-16T07:15:28;45.10;;;4.60;;
8474;SDS011;4274;52.012;8.448;2022-10-16T07:17:54;43.37;;;4.03;;
8474;SDS011;4274;52.012;8.448;2022-10-16T07:20:19;45.00;;;3.77;;
8474;SDS011;4274;52.012;8.448;2022-10-16T07:22:45;45.50;;;5.80;;
8474;SDS011;4274;52.012;8.448;2022-10-16T07:25:11;44.17;;;4.47;;
8474;SDS011;4274;52.012;8.448;2022-10-16T07:27:37;44.63;;;4.00;;
8474;SDS011;4274;52.012;8.448;2022-10-16T07:30:03;45.03;;;4.00;;
8474;SDS011;4274;52.012;8.448;2022-10-16T07:32:29;44.70;;;3.60;;
8474;SDS011;4274;52.012;8.448;2022-10-16T07:34:56;47.90;;;3.90;;
8474;SDS011;4274;52.012;8.448;2022-10-16T07:37:21;46.43;;;3.30;;
8474;SDS011;4274;52.012;8.448;2022-10-16T07:39:47;44.60;;;3.53;;
8474;SDS011;4274;52.012;8.448;2022-10-16T07:42:12;44.87;;;2.97;;
8474;SDS011;4274;52.012;8.448;2022-10-16T07:44:38;44.33;;;3.20;;
8474;SDS011;4274;52.012;8.448;2022-10-16T07:47:04;45.23;;;2.80;;
8474;SDS011;4274;52.012;8.448;2022-10-16T07:49:30;43.00;;;3.10;;
8474;SDS011;4274;52.012;8.448;2022-10-16T07:51:56;45.40;;;3.33;;
8474;SDS011;4274;52.012;8.448;2022-10-16T07:54:21;42.80;;;2.70;;
8474;SDS011;4274;52.012;8.448;2022-10-16T07:56:47;42.37;;;2.70;;
8474;SDS011;4274;52.012;8.448;2022-10-16T07:59:13;46.90;;;3.23;;
8474;SDS011;4274;52.012;8.448;2022-10-16T08:01:38;42.67;;;2.77;;
8474;SDS011;4274;52.012;8.448;2022-10-16T08:04:04;42.90;;;2.90;;
8474;SDS011;4274;52.012;8.448;2022-10-16T08:06:30;43.30;;;2.90;;
8474;SDS011;4274;52.012;8.448;2022-10-16T08:09:01;42.17;;;2.60;;
8474;SDS011;4274;52.012;8.448;2022-10-16T08:11:27;49.30;;;2.30;;
8474;SDS011;4274;52.012;8.448;2022-10-16T08:13:53;43.97;;;2.70;;
8474;SDS011;4274;52.012;8.448;2022-10-16T08:16:18;43.27;;;2.40;;
8474;SDS011;4274;52.012;8.448;2022-10-16T08:18:44;43.30;;;2.60;;
8474;SDS011;4274;52.012;8.448;2022-10-16T08:21:14;43.57;;;2.50;;
8474;SDS011;4274;52.012;8.448;2022-10-16T08:23:42;44.63;;;3.40;;
8474;SDS011;4274;52.012;8.448;2022-10-16T08:26:09;46.60;;;2.53;;
8474;SDS011;4274;52.012;8.448;2022-10-16T08:51:24;44.20;;;2.63;;
8474;SDS011;4274;52.012;8.448;2022-10-16T08:53:55;48.17;;;2.73;;
8474;SDS011;4274;52.012;8.448;2022-10-16T08:56:21;45.93;;;2.60;;
8474;SDS011;4274;52.012;8.448;2022-10-16T08:58:48;48.03;;;2.80;;
8474;SDS011;4274;52.012;8.448;2022-10-16T09:01:15;44.60;;;2.70;;
8474;SDS011;4274;52.012;8.448;2022-10-16T09:11:50;43.90;;;2.40;;
8474;SDS011;4274;52.012;8.448;2022-10-16T09:17:19;45.10;;;2.47;;
8474;SDS011;4274;52.012;8.448;2022-10-16T09:22:51;48.20;;;2.20;;
8474;SDS011;4274;52.012;8.448;2022-10-16T09:25:25;47.07;;;2.50;;
8474;SDS011;4274;52.012;8.448;2022-10-16T09:27:52;43.60;;;2.53;;
8474;SDS011;4274;52.012;8.448;2022-10-16T09:30:20;47.33;;;2.50;;
8474;SDS011;4274;52.012;8.448;2022-10-16T09:32:47;47.00;;;2.60;;
8474;SDS011;4274;52.012;8.448;2022-10-16T09:35:16;47.60;;;2.70;;
8474;SDS011;4274;52.012;8.448;2022-10-16T09:37:45;46.80;;;2.30;;
8474;SDS011;4274;52.012;8.448;2022-10-16T09:40:24;46.63;;;2.60;;
8474;SDS011;4274;52.012;8.448;2022-10-16T09:42:56;46.00;;;2.03;;
8474;SDS011;4274;52.012;8.448;2022-10-16T09:45:26;45.97;;;2.63;;
8474;SDS011;4274;52.012;8.448;2022-10-16T09:47:52;46.53;;;2.47;;
8474;SDS011;4274;52.012;8.448;2022-10-16T09:50:25;45.70;;;2.27;;
8474;SDS011;4274;52.012;8.448;2022-10-16T09:53:14;45.43;;;2.53;;
8474;SDS011;4274;52.012;8.448;2022-10-16T09:55:50;47.70;;;2.30;;
8474;SDS011;4274;52.012;8.448;2022-10-16T09:58:16;48.87;;;2.40;;
8474;SDS011;4274;52.012;8.448;2022-10-16T10:00:48;44.47;;;2.30;;
8474;SDS011;4274;52.012;8.448;2022-10-16T10:06:06;43.87;;;2.10;;
8474;SDS011;4274;52.012;8.448;2022-10-16T10:08:51;48.50;;;2.43;;
8474;SDS011;4274;52.012;8.448;2022-10-16T10:11:37;45.07;;;2.20;;
8474;SDS011;4274;52.012;8.448;2022-10-16T10:14:18;46.60;;;2.20;;
8474;SDS011;4274;52.012;8.448;2022-10-16T10:16:47;46.87;;;2.37;;
8474;SDS011;4274;52.012;8.448;2022-10-16T10:19:17;48.40;;;2.10;;
8474;SDS011;4274;52.012;8.448;2022-10-16T10:21:45;47.73;;;2.50;;
8474;SDS011;4274;52.012;8.448;2022-10-16T10:24:12;45.70;;;2.23;;
8474;SDS011;4274;52.012;8.448;2022-10-16T10:26:38;46.67;;;2.13;;
8474;SDS011;4274;52.012;8.448;2022-10-16T10:32:10;46.10;;;2.10;;
8474;SDS011;4274;52.012;8.448;2022-10-16T10:42:40;45.40;;;2.10;;
8474;SDS011;4274;52.012;8.448;2022-10-16T10:50:14;49.27;;;2.30;;
8474;SDS011;4274;52.012;8.448;2022-10-16T11:00:47;50.20;;;1.60;;
8474;SDS011;4274;52.012;8.448;2022-10-16T11:03:26;48.13;;;1.63;;
8474;SDS011;4274;52.012;8.448;2022-10-16T11:07:06;48.43;;;2.10;;
8474;SDS011;4274;52.012;8.448;2022-10-16T11:09:13;45.90;;;1.73;;
8474;SDS011;4274;52.012;8.448;2022-10-16T11:11:42;48.07;;;2.27;;
8474;SDS011;4274;52.012;8.448;2022-10-16T11:17:31;50.30;;;1.53;;
8474;SDS011;4274;52.012;8.448;2022-10-16T11:19:48;49.33;;;2.13;;
8474;SDS011;4274;52.012;8.448;2022-10-16T11:22:28;47.20;;;2.30;;
8474;SDS011;4274;52.012;8.448;2022-10-16T11:27:36;52.17;;;2.63;;
8474;SDS011;4274;52.012;8.448;2022-10-16T11:30:08;54.07;;;2.90;;
8474;SDS011;4274;52.012;8.448;2022-10-16T11:32:49;48.73;;;2.13;;
8474;SDS011;4274;52.012;8.448;2022-10-16T11:35:32;47.73;;;2.07;;
8474;SDS011;4274;52.012;8.448;2022-10-16T11:38:53;45.73;;;1.80;;
8474;SDS011;4274;52.012;8.448;2022-10-16T11:41:22;51.80;;;2.27;;
8474;SDS011;4274;52.012;8.448;2022-10-16T11:43:52;47.27;;;2.00;;
8474;SDS011;4274;52.012;8.448;2022-10-16T11:46:31;48.93;;;1.87;;
8474;SDS011;4274;52.012;8.448;2022-10-16T11:49:03;48.50;;;2.13;;
8474;SDS011;4274;52.012;8.448;2022-10-16T11:57:39;47.40;;;1.70;;
8474;SDS011;4274;52.012;8.448;2022-10-16T12:00:14;46.20;;;1.60;;
8474;SDS011;4274;52.012;8.448;2022-10-16T12:07:56;48.63;;;1.60;;
8474;SDS011;4274;52.012;8.448;2022-10-16T12:10:27;50.93;;;2.00;;
8474;SDS011;4274;52.012;8.448;2022-10-16T12:12:56;49.80;;;1.90;;
8474;SDS011;4274;52.012;8.448;2022-10-16T12:15:29;48.27;;;2.20;;
8474;SDS011;4274;52.012;8.448;2022-10-16T12:17:56;48.90;;;1.90;;
8474;SDS011;4274;52.012;8.448;2022-10-16T12:20:26;46.50;;;1.83;;
8474;SDS011;4274;52.012;8.448;2022-10-16T12:22:56;49.47;;;2.33;;
8474;SDS011;4274;52.012;8.448;2022-10-16T12:25:24;46.53;;;2.00;;
8474;SDS011;4274;52.012;8.448;2022-10-16T12:28:00;48.60;;;2.13;;
8474;SDS011;4274;52.012;8.448;2022-10-16T12:30:29;52.83;;;2.53;;
8474;SDS011;4274;52.012;8.448;2022-10-16T12:32:57;47.87;;;2.10;;
8474;SDS011;4274;52.012;8.448;2022-10-16T12:35:30;47.57;;;2.13;;
8474;SDS011;4274;52.012;8.448;2022-10-16T12:38:05;46.83;;;2.30;;
8474;SDS011;4274;52.012;8.448;2022-10-16T12:40:59;45.93;;;2.00;;
8474;SDS011;4274;52.012;8.448;2022-10-16T12:48:39;47.47;;;2.10;;
8474;SDS011;4274;52.012;8.448;2022-10-16T13:01:51;48.57;;;2.30;;
8474;SDS011;4274;52.012;8.448;2022-10-16T13:04:42;52.90;;;2.20;;
8474;SDS011;4274;52.012;8.448;2022-10-16T13:12:48;50.30;;;2.30;;
8474;SDS011;4274;52.012;8.448;2022-10-16T13:15:29;47.80;;;2.20;;
8474;SDS011;4274;52.012;8.448;2022-10-16T13:18:15;46.77;;;1.90;;
8474;SDS011;4274;52.012;8.448;2022-10-16T13:29:18;47.80;;;1.90;;
8474;SDS011;4274;52.012;8.448;2022-10-16T13:31:44;50.97;;;2.30;;
8474;SDS011;4274;52.012;8.448;2022-10-16T13:34:14;47.20;;;1.90;;
8474;SDS011;4274;52.012;8.448;2022-10-16T13:36:48;46.90;;;1.90;;
8474;SDS011;4274;52.012;8.448;2022-10-16T13:41:44;52.03;;;2.70;;
8474;SDS011;4274;52.012;8.448;2022-10-16T13:44:14;46.97;;;1.90;;
8474;SDS011;4274;52.012;8.448;2022-10-16T13:46:43;47.90;;;2.13;;
8474;SDS011;4274;52.012;8.448;2022-10-16T13:49:13;48.07;;;2.00;;
8474;SDS011;4274;52.012;8.448;2022-10-16T13:51:41;46.70;;;1.83;;
8474;SDS011;4274;52.012;8.448;2022-10-16T13:54:18;47.27;;;2.03;;
8474;SDS011;4274;52.012;8.448;2022-10-16T13:56:44;50.70;;;2.40;;
8474;SDS011;4274;52.012;8.448;2022-10-16T14:02:00;49.30;;;2.13;;
8474;SDS011;4274;52.012;8.448;2022-10-16T14:04:39;47.50;;;2.10;;
8474;SDS011;4274;52.012;8.448;2022-10-16T14:07:05;47.30;;;2.10;;
8474;SDS011;4274;52.012;8.448;2022-10-16T14:09:30;49.00;;;2.03;;
8474;SDS011;4274;52.012;8.448;2022-10-16T14:12:03;46.77;;;2.10;;
8474;SDS011;4274;52.012;8.448;2022-10-16T14:15:15;49.63;;;2.30;;
8474;SDS011;4274;52.012;8.448;2022-10-16T14:19:55;47.27;;;2.17;;
8474;SDS011;4274;52.012;8.448;2022-10-16T14:22:36;51.30;;;2.43;;
8474;SDS011;4274;52.012;8.448;2022-10-16T14:28:02;49.00;;;2.87;;
8474;SDS011;4274;52.012;8.448;2022-10-16T14:30:30;48.47;;;3.37;;
8474;SDS011;4274;52.012;8.448;2022-10-16T14:33:18;49.10;;;2.50;;
8474;SDS011;4274;52.012;8.448;2022-10-16T14:35:56;48.80;;;2.40;;
8474;SDS011;4274;52.012;8.448;2022-10-16T14:38:35;45.97;;;2.40;;
8474;SDS011;4274;52.012;8.448;2022-10-16T14:41:02;47.63;;;2.87;;
8474;SDS011;4274;52.012;8.448;2022-10-16T14:43:36;58.40;;;2.80;;
8474;SDS011;4274;52.012;8.448;2022-10-16T14:46:09;47.17;;;2.50;;
8474;SDS011;4274;52.012;8.448;2022-10-16T14:48:43;46.60;;;2.60;;
8474;SDS011;4274;52.012;8.448;2022-10-16T14:51:14;47.90;;;2.80;;
8474;SDS011;4274;52.012;8.448;2022-10-16T14:53:40;46.93;;;2.50;;
8474;SDS011;4274;52.012;8.448;2022-10-16T14:56:07;47.80;;;2.80;;
8474;SDS011;4274;52.012;8.448;2022-10-16T14:58:39;46.30;;;2.60;;
8474;SDS011;4274;52.012;8.448;2022-10-16T15:01:05;46.80;;;2.40;;
8474;SDS011;4274;52.012;8.448;2022-10-16T15:03:33;48.83;;;2.90;;
8474;SDS011;4274;52.012;8.448;2022-10-16T15:05:59;48.70;;;3.13;;
8474;SDS011;4274;52.012;8.448;2022-10-16T15:08:24;46.07;;;2.50;;
8474;SDS011;4274;52.012;8.448;2022-10-16T15:10:50;46.77;;;2.60;;
8474;SDS011;4274;52.012;8.448;2022-10-16T15:13:16;51.90;;;3.00;;
8474;SDS011;4274;52.012;8.448;2022-10-16T15:15:43;47.40;;;3.00;;
8474;SDS011;4274;52.012;8.448;2022-10-16T15:18:10;49.90;;;3.33;;
8474;SDS011;4274;52.012;8.448;2022-10-16T15:20:36;47.70;;;3.13;;
8474;SDS011;4274;52.012;8.448;2022-10-16T15:23:05;49.60;;;2.70;;
8474;SDS011;4274;52.012;8.448;2022-10-16T15:25:38;45.60;;;2.47;;
8474;SDS011;4274;52.012;8.448;2022-10-16T15:28:04;46.50;;;2.90;;
8474;SDS011;4274;52.012;8.448;2022-10-16T15:30:31;48.20;;;2.60;;
8474;SDS011;4274;52.012;8.448;2022-10-16T15:32:57;45.87;;;2.30;;
8474;SDS011;4274;52.012;8.448;2022-10-16T15:35:23;47.57;;;3.10;;
8474;SDS011;4274;52.012;8.448;2022-10-16T15:37:49;47.17;;;2.60;;
8474;SDS011;4274;52.012;8.448;2022-10-16T15:40:15;47.77;;;3.03;;
8474;SDS011;4274;52.012;8.448;2022-10-16T15:42:41;44.70;;;2.50;;
8474;SDS011;4274;52.012;8.448;2022-10-16T15:45:07;48.50;;;3.40;;
8474;SDS011;4274;52.012;8.448;2022-10-16T15:47:34;49.37;;;3.70;;
8474;SDS011;4274;52.012;8.448;2022-10-16T15:49:59;48.63;;;2.73;;
8474;SDS011;4274;52.012;8.448;2022-10-16T15:52:25;47.00;;;3.00;;
8474;SDS011;4274;52.012;8.448;2022-10-16T15:54:51;46.17;;;3.10;;
8474;SDS011;4274;52.012;8.448;2022-10-16T15:57:16;53.70;;;4.40;;
8474;SDS011;4274;52.012;8.448;2022-10-16T15:59:42;51.33;;;3.70;;
8474;SDS011;4274;52.012;8.448;2022-10-16T16:02:08;50.10;;;2.58;;
8474;SDS011;4274;52.012;8.448;2022-10-16T16:04:34;49.87;;;3.27;;
8474;SDS011;4274;52.012;8.448;2022-10-16T16:07:00;47.73;;;3.47;;
8474;SDS011;4274;52.012;8.448;2022-10-16T16:09:26;45.37;;;2.73;;
8474;SDS011;4274;52.012;8.448;2022-10-16T16:11:54;47.80;;;2.93;;
8474;SDS011;4274;52.012;8.448;2022-10-16T16:14:20;50.50;;;2.77;;
8474;SDS011;4274;52.012;8.448;2022-10-16T16:16:45;47.53;;;3.10;;
8474;SDS011;4274;52.012;8.448;2022-10-16T16:19:11;47.03;;;3.00;;
8474;SDS011;4274;52.012;8.448;2022-10-16T16:21:37;48.20;;;3.87;;
8474;SDS011;4274;52.012;8.448;2022-10-16T16:24:03;48.30;;;3.53;;
8474;SDS011;4274;52.012;8.448;2022-10-16T16:26:33;48.17;;;4.03;;
8474;SDS011;4274;52.012;8.448;2022-10-16T16:29:01;53.47;;;4.37;;
8474;SDS011;4274;52.012;8.448;2022-10-16T16:31:28;50.33;;;4.93;;
8474;SDS011;4274;52.012;8.448;2022-10-16T16:33:55;52.40;;;3.93;;
8474;SDS011;4274;52.012;8.448;2022-10-16T16:36:21;47.40;;;3.20;;
8474;SDS011;4274;52.012;8.448;2022-10-16T16:38:48;50.33;;;3.57;;
8474;SDS011;4274;52.012;8.448;2022-10-16T16:41:14;49.17;;;4.30;;
8474;SDS011;4274;52.012;8.448;2022-10-16T16:43:42;49.57;;;3.50;;
8474;SDS011;4274;52.012;8.448;2022-10-16T16:46:08;47.13;;;3.40;;
8474;SDS011;4274;52.012;8.448;2022-10-16T16:48:34;49.23;;;4.20;;
8474;SDS011;4274;52.012;8.448;2022-10-16T16:51:06;48.70;;;4.10;;
8474;SDS011;4274;52.012;8.448;2022-10-16T16:53:34;47.60;;;3.80;;
8474;SDS011;4274;52.012;8.448;2022-10-16T16:56:02;46.80;;;3.40;;
8474;SDS011;4274;52.012;8.448;2022-10-16T16:58:28;50.27;;;4.13;;
8474;SDS011;4274;52.012;8.448;2022-10-16T17:00:54;49.97;;;4.50;;
8474;SDS011;4274;52.012;8.448;2022-10-16T17:03:20;48.67;;;3.53;;
8474;SDS011;4274;52.012;8.448;2022-10-16T17:06:05;58.47;;;3.70;;
8474;SDS011;4274;52.012;8.448;2022-10-16T17:08:32;52.90;;;3.53;;
8474;SDS011;4274;52.012;8.448;2022-10-16T17:10:59;46.97;;;3.23;;
8474;SDS011;4274;52.012;8.448;2022-10-16T17:13:25;54.43;;;3.47;;
8474;SDS011;4274;52.012;8.448;2022-10-16T17:15:52;48.30;;;3.50;;
8474;SDS011;4274;52.012;8.448;2022-10-16T17:18:19;50.03;;;3.23;;
8474;SDS011;4274;52.012;8.448;2022-10-16T17:20:46;53.47;;;3.83;;